Sheng Jia 1 — XUGG7 — position and weather

sailwx.info

Track history (hours):
 
Tides and Currents Weather Stations Pressure Air Temp Water Temp Dewpoint Dewpoint Depression Visibility Wind Speed Wind Dir Waves Ship Positions

Sheng Jia 1

Last reported at 2015-May-28 01:11 UTC. Time now 2015-May-28 02:01 UTC.
Position N 35°40' E 122°48'.

Length 73 m; draft 3.4 m.

Type: Cargo ship. MMSI: 515744000.

Date/timePositionNaut miles runAvg speedWind from/ knotsBaromVisibWave heightAir tempDewpointWater temp
2015-May-28 01:11N 35°40' E 122°48'25310.5
2015-May-27 01:11N 31°27' E 122°33'711.5
2015-May-27 00:33N 31°20' E 122°33'1211.6
2015-May-26 23:33N 31°08' E 122°33'1211.5
2015-May-26 22:33N 30°56' E 122°33'1410.8
2015-May-26 21:16N 30°43' E 122°37'910.8
2015-May-26 20:24N 30°34' E 122°37'5010.1
2015-May-26 15:31N 29°44' E 122°33'9 9.4
2015-May-26 14:33N 29°35' E 122°31'13 9.6
2015-May-26 13:13N 29°24' E 122°24'11 9.9
2015-May-26 12:04N 29°14' E 122°18'810.1
2015-May-26 11:18N 29°07' E 122°14'1810.4
2015-May-26 09:32N 28°52' E 122°02'  
2015-May-22 10:28N 31°15' E 125°08'14 9.8
2015-May-22 09:04N 31°22' E 125°21'5 9.1
2015-May-22 08:30N 31°25' E 125°26'260 9.5
2015-May-21 05:19N 33°39' E 129°50'7 8.3
2015-May-21 04:32N 33°42' E 129°57'8 8.4
2015-May-21 03:32N 33°46' E 130°06'11 8.8
2015-May-21 02:18N 33°52' E 130°17'  
Track history (hours):
 
Tides and Currents Weather Stations Pressure Air Temp Water Temp Dewpoint Dewpoint Depression Visibility Wind Speed Wind Dir Waves Ship Positions

Sheng Jia 1

Last reported at 2015-May-28 01:11 UTC. Time now 2015-May-28 02:01 UTC.
Position N 35°40' E 122°48'.

Length 73 m; draft 3.4 m.

Type: Cargo ship. MMSI: 515744000.

Date/timePositionNaut miles runAvg speedWind from/ knotsBaromVisibWave heightAir tempDewpointWater temp
2015-May-28 01:11N 35°40' E 122°48'25310.5
2015-May-27 01:11N 31°27' E 122°33'711.5
2015-May-27 00:33N 31°20' E 122°33'1211.6
2015-May-26 23:33N 31°08' E 122°33'1211.5
2015-May-26 22:33N 30°56' E 122°33'1410.8
2015-May-26 21:16N 30°43' E 122°37'910.8
2015-May-26 20:24N 30°34' E 122°37'5010.1
2015-May-26 15:31N 29°44' E 122°33'9 9.4
2015-May-26 14:33N 29°35' E 122°31'13 9.6
2015-May-26 13:13N 29°24' E 122°24'11 9.9
2015-May-26 12:04N 29°14' E 122°18'810.1
2015-May-26 11:18N 29°07' E 122°14'1810.4
2015-May-26 09:32N 28°52' E 122°02'  
2015-May-22 10:28N 31°15' E 125°08'14 9.8
2015-May-22 09:04N 31°22' E 125°21'5 9.1
2015-May-22 08:30N 31°25' E 125°26'260 9.5
2015-May-21 05:19N 33°39' E 129°50'7 8.3
2015-May-21 04:32N 33°42' E 129°57'8 8.4
2015-May-21 03:32N 33°46' E 130°06'11 8.8
2015-May-21 02:18N 33°52' E 130°17'  

Dump ship's entire track history